Time;durP1;ratioP1;P1;durP2;ratioP2;P2;SDS_P1;SDS_P2;PMS_P1;PMS_P2;Temp;Humidity;BMP_temperature;BMP_pressure;BME280_temperature;BME280_humidity;BME280_pressure;Samples;Min_cycle;Max_cycle;Signal;HPM_P1;HPM_P2
2021/05/13 00:00:07;;;;;;;19.30;15.40;;;;;;;14.81;64.13;99760.44;5073914;28;20440;-68
2021/05/13 00:02:33;;;;;;;17.30;15.60;;;;;;;14.73;64.49;99768.56;5072383;28;20846;-68
2021/05/13 00:04:59;;;;;;;16.80;15.10;;;;;;;14.65;64.77;99764.91;5064136;28;20460;-68
2021/05/13 00:07:25;;;;;;;18.87;17.17;;;;;;;14.65;64.83;99758.66;5067335;28;21077;-69
2021/05/13 00:09:52;;;;;;;18.37;16.63;;;;;;;14.67;64.78;99768.25;5076221;28;20476;-69
2021/05/13 00:12:36;;;;;;;19.73;17.63;;;;;;;14.64;65.44;99762.41;5074219;28;20499;-68
2021/05/13 00:15:05;;;;;;;21.67;18.37;;;;;;;14.35;66.54;99763.06;5075103;28;20483;-69
2021/05/13 00:17:32;;;;;;;19.80;17.90;;;;;;;14.30;67.01;99761.75;5081319;28;20468;-69
2021/05/13 00:19:58;;;;;;;21.03;18.93;;;;;;;14.56;66.38;99767.78;5074808;28;20460;-69
2021/05/13 00:22:25;;;;;;;22.70;19.07;;;;;;;14.80;65.49;99756.88;5065419;28;20488;-69
2021/05/13 00:24:51;;;;;;;20.63;18.60;;;;;;;14.82;65.33;99760.22;5071459;28;20528;-69
2021/05/13 00:27:17;;;;;;;21.10;19.00;;;;;;;14.91;65.07;99754.78;5064138;28;20508;-69
2021/05/13 00:29:43;;;;;;;20.60;18.40;;;;;;;14.99;64.90;99752.84;5066970;28;20515;-68
2021/05/13 00:32:10;;;;;;;18.17;16.37;;;;;;;15.01;64.97;99744.59;5070859;28;20516;-69
2021/05/13 00:34:36;;;;;;;17.70;16.10;;;;;;;14.97;65.23;99746.81;5071472;28;20507;-68
2021/05/13 00:37:02;;;;;;;18.57;16.80;;;;;;;15.10;64.47;99756.13;5075799;28;20479;-68
2021/05/13 00:39:29;;;;;;;17.63;15.83;;;;;;;15.09;64.63;99743.72;5073868;28;20455;-68
2021/05/13 00:41:55;;;;;;;17.13;15.63;;;;;;;15.06;64.59;99753.81;5081689;28;20488;-69
2021/05/13 00:44:22;;;;;;;18.17;16.13;;;;;;;15.05;64.39;99754.84;5073165;28;21250;-69
2021/05/13 00:46:48;;;;;;;19.13;15.87;;;;;;;15.06;64.56;99751.09;5081588;28;20484;-68
2021/05/13 00:49:17;;;;;;;19.30;15.37;;;;;;;15.06;64.63;99751.09;5081749;28;20440;-68
2021/05/13 00:51:45;;;;;;;17.83;15.97;;;;;;;15.04;64.61;99745.06;5075191;28;20499;-68
2021/05/13 00:54:11;;;;;;;16.90;14.70;;;;;;;15.05;64.70;99746.75;5076843;28;20484;-68
2021/05/13 00:56:37;;;;;;;19.17;15.43;;;;;;;15.02;64.61;99741.72;5069719;28;20552;-68
2021/05/13 00:59:07;;;;;;;16.43;14.83;;;;;;;14.93;64.63;99745.53;5065677;28;20453;-68
2021/05/13 01:04:14;;;;;;;15.60;14.10;;;;;;;14.87;64.76;99747.06;5072630;28;20460;-68
2021/05/13 01:06:41;;;;;;;17.83;15.77;;;;;;;14.85;64.95;99740.19;5073316;28;20469;-68
2021/05/13 01:09:09;;;;;;;17.20;15.23;;;;;;;14.84;64.89;99743.91;5079774;28;20471;-68
2021/05/13 01:11:37;;;;;;;22.90;18.10;;;;;;;14.98;64.41;99747.66;5072941;28;20480;-69
2021/05/13 01:14:12;;;;;;;18.50;16.70;;;;;;;14.95;64.62;99738.09;5063031;28;20623;-68
2021/05/13 01:16:46;;;;;;;18.40;16.53;;;;;;;14.97;64.26;99748.69;5063423;28;20483;-68
2021/05/13 01:19:15;;;;;;;16.87;15.17;;;;;;;14.85;64.55;99746.41;5071430;28;20487;-68
2021/05/13 01:21:42;;;;;;;17.53;15.90;;;;;;;14.86;64.53;99741.88;5074685;28;20488;-69
2021/05/13 01:24:09;;;;;;;19.70;16.17;;;;;;;14.78;64.56;99741.94;5081403;28;20750;-68
2021/05/13 01:26:35;;;;;;;16.73;15.03;;;;;;;14.62;65.28;99735.66;5072460;28;20895;-69
2021/05/13 01:29:02;;;;;;;18.37;14.90;;;;;;;14.74;64.87;99737.91;5065334;28;20503;-68
2021/05/13 01:31:29;;;;;;;18.60;16.77;;;;;;;14.97;63.95;99732.53;5072093;28;20584;-68
2021/05/13 01:33:55;;;;;;;18.07;16.30;;;;;;;14.86;64.17;99739.19;5071528;28;20460;-68
2021/05/13 01:36:22;;;;;;;19.00;17.10;;;;;;;14.78;64.46;99728.50;5075764;28;20469;-69
2021/05/13 01:38:49;;;;;;;18.27;16.27;;;;;;;14.57;65.23;99731.81;5070780;28;20453;-69
2021/05/13 01:41:15;;;;;;;18.43;16.63;;;;;;;14.65;65.18;99729.06;5071713;28;20508;-68
2021/05/13 01:43:41;;;;;;;23.83;17.13;;;;;;;14.67;65.13;99719.81;5073092;28;20476;-68
2021/05/13 01:46:07;;;;;;;18.90;16.67;;;;;;;14.68;65.07;99715.28;5069776;28;20499;-69
2021/05/13 01:48:34;;;;;;;19.93;15.97;;;;;;;14.73;64.94;99706.66;5066943;28;20536;-68
2021/05/13 01:51:01;;;;;;;19.83;17.83;;;;;;;14.87;64.30;99716.63;5062183;28;20498;-68
2021/05/13 01:53:27;;;;;;;17.30;15.57;;;;;;;14.78;64.56;99718.56;5067999;28;20449;-68
2021/05/13 01:55:54;;;;;;;18.67;16.53;;;;;;;14.76;64.89;99717.91;5061835;28;20500;-68
2021/05/13 01:58:20;;;;;;;20.10;18.10;;;;;;;14.81;64.93;99712.00;5068506;28;20444;-68
2021/05/13 02:00:46;;;;;;;20.90;17.87;;;;;;;14.79;64.82;99714.00;5067493;28;20602;-68
2021/05/13 02:03:13;;;;;;;21.30;19.00;;;;;;;14.72;64.94;99721.13;5062556;28;20452;-68
2021/05/13 02:05:39;;;;;;;19.93;17.97;;;;;;;14.84;64.53;99722.38;5064459;28;20493;-69
2021/05/13 02:08:06;;;;;;;19.70;16.93;;;;;;;14.84;64.39;99715.16;5063355;28;20496;-69
2021/05/13 02:10:32;;;;;;;18.30;16.60;;;;;;;14.76;64.82;99707.13;5070281;28;20547;-69
2021/05/13 02:12:59;;;;;;;23.07;17.80;;;;;;;14.67;65.14;99703.69;5069118;28;20437;-68
2021/05/13 02:15:26;;;;;;;19.97;17.90;;;;;;;14.64;65.31;99706.72;5074395;28;20480;-69
2021/05/13 02:17:52;;;;;;;20.07;17.87;;;;;;;14.58;65.33;99704.78;5069222;28;20880;-69
2021/05/13 02:20:20;;;;;;;20.37;18.30;;;;;;;14.64;65.59;99705.91;5071245;28;20495;-69
2021/05/13 02:22:47;;;;;;;23.13;18.63;;;;;;;14.75;64.89;99701.94;5081104;28;20666;-68
2021/05/13 02:25:13;;;;;;;19.90;18.00;;;;;;;14.87;64.59;99695.94;5069466;28;20480;-68
2021/05/13 02:27:40;;;;;;;19.23;17.17;;;;;;;14.82;64.31;99695.63;5074159;28;21178;-68
2021/05/13 02:30:09;;;;;;;20.17;18.07;;;;;;;14.65;64.80;99694.97;5079289;28;20490;-68
2021/05/13 02:32:35;;;;;;;19.80;18.00;;;;;;;14.68;64.99;99683.81;5068198;28;20452;-68
2021/05/13 02:35:01;;;;;;;20.17;17.80;;;;;;;14.60;65.11;99686.59;5072387;28;20560;-69
2021/05/13 02:37:28;;;;;;;18.93;16.30;;;;;;;14.48;65.18;99688.00;5068200;28;20507;-67
2021/05/13 02:39:54;;;;;;;18.03;16.23;;;;;;;14.61;64.78;99679.34;5075350;28;20479;-67
2021/05/13 02:42:20;;;;;;;19.50;17.60;;;;;;;14.52;65.21;99678.53;5063823;28;20480;-67
2021/05/13 02:44:46;;;;;;;19.27;17.37;;;;;;;14.48;64.90;99675.38;5080054;28;20494;-67
2021/05/13 02:47:13;;;;;;;18.47;16.63;;;;;;;14.57;64.69;99675.31;5062887;28;20520;-67
2021/05/13 02:49:39;;;;;;;18.60;16.90;;;;;;;14.56;64.94;99674.47;5064150;28;20481;-68
2021/05/13 02:52:06;;;;;;;17.73;16.13;;;;;;;14.45;64.85;99667.66;5064464;28;20501;-68
2021/05/13 02:54:32;;;;;;;19.47;16.40;;;;;;;14.35;65.10;99675.13;5061809;28;20589;-68
2021/05/13 02:56:58;;;;;;;17.90;16.03;;;;;;;14.39;65.01;99671.09;5068277;28;20489;-67
2021/05/13 02:59:31;;;;;;;18.80;17.00;;;;;;;14.41;64.91;99661.00;5065258;28;20476;-68
2021/05/13 03:01:57;;;;;;;16.67;14.97;;;;;;;14.26;65.37;99666.28;5067747;28;20511;-68
2021/05/13 03:04:24;;;;;;;17.63;15.87;;;;;;;14.16;65.27;99670.25;5069785;28;20477;-67
2021/05/13 03:06:50;;;;;;;17.80;15.90;;;;;;;14.18;65.39;99668.19;5068062;28;20507;-68
2021/05/13 03:09:18;;;;;;;17.90;16.20;;;;;;;14.08;65.53;99676.53;5069329;28;20459;-69
2021/05/13 03:11:44;;;;;;;19.27;17.27;;;;;;;14.11;65.63;99685.06;5067261;28;20491;-67
2021/05/13 03:14:11;;;;;;;17.63;15.87;;;;;;;14.27;65.36;99676.03;5075999;28;20472;-67
2021/05/13 03:16:37;;;;;;;16.93;15.23;;;;;;;14.34;65.04;99680.69;5076117;28;20860;-68
2021/05/13 03:19:05;;;;;;;19.00;17.20;;;;;;;14.30;64.89;99683.75;5076189;28;20963;-68
2021/05/13 03:21:35;;;;;;;16.77;15.03;;;;;;;14.21;65.45;99687.50;5067636;28;20846;-67
2021/05/13 03:24:07;;;;;;;17.17;15.40;;;;;;;14.31;65.03;99688.09;5081492;28;20462;-67
2021/05/13 03:26:41;;;;;;;17.10;15.27;;;;;;;14.23;64.94;99681.94;5064540;28;20488;-69
2021/05/13 03:29:07;;;;;;;16.97;15.27;;;;;;;14.20;64.96;99675.09;5065640;28;20817;-69
2021/05/13 03:31:34;;;;;;;19.53;15.07;;;;;;;14.08;65.34;99666.59;5070340;28;20521;-70
2021/05/13 03:34:00;;;;;;;17.43;15.30;;;;;;;14.12;65.32;99675.97;5075658;28;20504;-68
2021/05/13 03:36:26;;;;;;;18.00;16.10;;;;;;;14.04;65.21;99667.94;5078187;28;20559;-69
2021/05/13 03:38:54;;;;;;;20.20;16.47;;;;;;;14.05;65.57;99669.63;5068776;28;20475;-68
2021/05/13 03:41:20;;;;;;;17.53;15.67;;;;;;;13.97;65.37;99663.47;5067515;28;20486;-69
2021/05/13 03:43:46;;;;;;;16.00;14.30;;;;;;;13.89;65.09;99661.69;5076747;28;20444;-69
2021/05/13 03:46:12;;;;;;;18.10;15.00;;;;;;;13.87;65.24;99656.47;5078101;28;20485;-68
2021/05/13 03:48:38;;;;;;;17.40;15.30;;;;;;;13.94;64.92;99660.13;5065375;28;20463;-68
2021/05/13 03:51:04;;;;;;;17.87;15.83;;;;;;;13.91;65.09;99657.78;5068647;28;20499;-69
2021/05/13 03:53:32;;;;;;;17.87;15.10;;;;;;;13.95;64.77;99655.56;5075361;28;20469;-68
2021/05/13 03:55:58;;;;;;;17.30;15.57;;;;;;;13.89;64.83;99649.06;5078251;28;20495;-68
2021/05/13 03:58:30;;;;;;;16.00;14.40;;;;;;;13.65;65.65;99651.91;5071681;28;20492;-68
2021/05/13 04:01:10;;;;;;;17.93;15.73;;;;;;;13.53;66.03;99643.38;5066893;28;20477;-70
2021/05/13 04:03:36;;;;;;;18.73;16.83;;;;;;;13.51;65.92;99635.50;5081198;28;20466;-69
2021/05/13 04:06:02;;;;;;;17.30;15.67;;;;;;;13.72;65.58;99647.50;5075457;28;21012;-69
2021/05/13 04:08:28;;;;;;;19.17;16.20;;;;;;;13.78;64.87;99651.31;5074912;28;20464;-68
2021/05/13 04:10:54;;;;;;;17.53;14.83;;;;;;;13.96;64.93;99645.66;5078254;28;20579;-69
2021/05/13 04:13:22;;;;;;;17.37;15.50;;;;;;;14.05;64.33;99639.22;5083674;28;20527;-68
2021/05/13 04:15:48;;;;;;;19.60;15.47;;;;;;;14.06;64.49;99636.38;5079969;28;20522;-70
2021/05/13 04:18:15;;;;;;;16.60;14.80;;;;;;;14.08;64.76;99638.88;5076290;28;20451;-69
2021/05/13 04:20:41;;;;;;;17.53;15.77;;;;;;;14.20;64.45;99632.06;5072363;28;20503;-68
2021/05/13 04:23:08;;;;;;;17.43;15.63;;;;;;;14.30;63.77;99621.91;5068082;28;20441;-68
2021/05/13 04:25:34;;;;;;;17.20;15.50;;;;;;;14.29;63.83;99627.47;5075570;28;20476;-68
2021/05/13 04:28:00;;;;;;;16.43;14.83;;;;;;;14.23;64.24;99625.50;5074632;28;20436;-69
2021/05/13 04:30:27;;;;;;;17.50;15.80;;;;;;;14.27;64.15;99629.50;5074089;28;20563;-69
2021/05/13 04:32:53;;;;;;;16.33;14.77;;;;;;;14.38;63.64;99626.38;5075473;28;20489;-69
2021/05/13 04:35:19;;;;;;;15.73;14.20;;;;;;;14.51;63.07;99628.44;5076154;28;20863;-69
2021/05/13 04:37:46;;;;;;;15.60;13.77;;;;;;;14.69;62.48;99620.94;5072142;28;20966;-68
2021/05/13 04:40:12;;;;;;;15.77;14.27;;;;;;;14.49;62.66;99622.41;5070037;28;20484;-68
2021/05/13 04:42:39;;;;;;;16.10;14.47;;;;;;;14.47;63.38;99614.53;5077549;28;20531;-68
2021/05/13 04:45:06;;;;;;;17.43;15.60;;;;;;;14.50;63.22;99622.25;5069459;28;20532;-70
2021/05/13 04:47:36;;;;;;;15.20;13.70;;;;;;;14.28;63.97;99615.03;5078031;28;20479;-68
2021/05/13 04:50:03;;;;;;;15.83;14.10;;;;;;;14.59;63.00;99616.81;5081341;28;20456;-69
2021/05/13 04:52:29;;;;;;;16.27;13.90;;;;;;;14.31;63.75;99612.00;5063578;28;20468;-68
2021/05/13 04:54:57;;;;;;;15.47;13.87;;;;;;;14.73;62.73;99612.50;5079893;28;21066;-68
2021/05/13 04:57:24;;;;;;;15.93;14.33;;;;;;;14.84;62.22;99612.88;5072251;28;20480;-69
2021/05/13 04:59:50;;;;;;;13.77;12.50;;;;;;;15.30;60.90;99605.66;5073142;28;20477;-68
2021/05/13 05:02:16;;;;;;;15.17;13.77;;;;;;;15.40;60.20;99601.63;5074989;28;20570;-69
2021/05/13 05:04:43;;;;;;;16.67;13.63;;;;;;;15.27;60.63;99598.75;5079741;28;20483;-69
2021/05/13 05:07:10;;;;;;;14.33;12.90;;;;;;;14.90;62.03;99608.63;5072597;28;20498;-69
2021/05/13 05:09:36;;;;;;;15.30;13.80;;;;;;;14.88;62.40;99605.28;5064078;28;20460;-68
2021/05/13 05:12:03;;;;;;;15.80;13.90;;;;;;;14.99;62.18;99602.13;5063934;28;20960;-68
2021/05/13 05:14:29;;;;;;;14.70;13.13;;;;;;;15.28;61.62;99594.22;5075429;28;20508;-68
2021/05/13 05:16:55;;;;;;;15.87;14.20;;;;;;;14.96;61.90;99588.19;5079374;28;20501;-69
2021/05/13 05:19:21;;;;;;;16.77;15.17;;;;;;;14.99;62.37;99596.72;5062331;28;20877;-68
2021/05/13 05:21:49;;;;;;;16.90;15.10;;;;;;;15.25;61.65;99595.44;5068017;28;20471;-68
2021/05/13 05:24:15;;;;;;;15.33;13.93;;;;;;;15.43;60.76;99587.78;5081852;28;20452;-69
2021/05/13 05:26:42;;;;;;;16.83;15.00;;;;;;;15.74;59.64;99591.25;5077216;28;20555;-70
2021/05/13 05:29:08;;;;;;;15.10;13.70;;;;;;;16.33;58.34;99577.53;5070435;28;20848;-69
2021/05/13 05:31:34;;;;;;;14.43;12.93;;;;;;;17.15;55.71;99579.78;5079617;28;20555;-69
2021/05/13 05:34:00;;;;;;;14.10;12.30;;;;;;;18.11;53.14;99576.19;5068523;28;20553;-68
2021/05/13 05:36:28;;;;;;;12.60;11.43;;;;;;;19.21;50.03;99575.66;5070183;28;20574;-68
2021/05/13 05:38:55;;;;;;;10.27;9.17;;;;;;;21.46;43.85;99574.19;5073071;28;21761;-68
2021/05/13 05:41:22;;;;;;;8.83;8.03;;;;;;;23.11;40.60;99579.97;5070661;28;20488;-69
2021/05/13 05:43:48;;;;;;;9.20;8.30;;;;;;;24.11;37.63;99570.75;5063467;28;20441;-69
2021/05/13 05:46:14;;;;;;;9.10;7.10;;;;;;;25.22;35.51;99569.16;5075926;28;20535;-69
2021/05/13 05:48:40;;;;;;;7.60;6.90;;;;;;;25.56;34.45;99572.63;5072034;28;20444;-69
2021/05/13 05:51:06;;;;;;;7.40;6.67;;;;;;;26.00;33.98;99569.81;5074540;28;20503;-69
2021/05/13 05:53:32;;;;;;;8.10;7.30;;;;;;;26.90;32.16;99574.69;5069969;28;20482;-70
2021/05/13 05:56:00;;;;;;;6.03;5.40;;;;;;;27.24;31.33;99577.06;5072736;28;20572;-69
2021/05/13 05:58:26;;;;;;;7.07;6.40;;;;;;;27.93;30.18;99572.38;5065371;28;20472;-69
2021/05/13 06:00:52;;;;;;;8.80;6.73;;;;;;;27.58;30.11;99563.75;5078909;28;20926;-69
2021/05/13 06:03:18;;;;;;;8.00;6.23;;;;;;;26.60;31.89;99565.13;5069887;28;20480;-69
2021/05/13 06:05:44;;;;;;;6.33;5.70;;;;;;;26.86;31.56;99566.16;5067549;28;20502;-69
2021/05/13 06:08:11;;;;;;;6.80;5.80;;;;;;;26.30;32.48;99568.47;5081631;28;20552;-70
2021/05/13 06:10:37;;;;;;;7.43;5.87;;;;;;;26.50;32.55;99567.78;5079670;28;20540;-69
2021/05/13 06:13:07;;;;;;;6.83;5.70;;;;;;;27.05;31.39;99566.53;5081410;28;20884;-69
2021/05/13 06:15:33;;;;;;;5.97;5.37;;;;;;;26.91;31.27;99562.63;5070164;28;20477;-69
2021/05/13 06:17:59;;;;;;;6.43;5.07;;;;;;;26.89;31.35;99562.06;5080757;28;20452;-70
2021/05/13 06:20:27;;;;;;;5.47;4.97;;;;;;;27.80;29.85;99551.72;5080426;28;20526;-68
2021/05/13 06:22:53;;;;;;;7.13;5.03;;;;;;;27.75;29.23;99554.47;5074567;28;20500;-68
2021/05/13 06:25:20;;;;;;;7.90;5.43;;;;;;;28.16;28.44;99549.06;5071845;28;20436;-68
2021/05/13 06:27:47;;;;;;;6.43;5.30;;;;;;;28.49;28.01;99552.34;5076024;28;20626;-70
2021/05/13 06:30:15;;;;;;;8.33;6.93;;;;;;;29.47;27.17;99555.69;5080862;28;20475;-69
2021/05/13 06:32:42;;;;;;;9.70;6.50;;;;;;;28.96;27.31;99558.59;5081001;28;20432;-70
2021/05/13 06:35:09;;;;;;;10.10;6.30;;;;;;;29.38;27.68;99560.16;5067920;28;20480;-70
2021/05/13 06:37:35;;;;;;;6.60;5.90;;;;;;;29.32;27.10;99561.25;5075123;28;20725;-69
2021/05/13 06:40:02;;;;;;;6.50;5.50;;;;;;;29.46;27.02;99554.03;5075308;28;20444;-69
2021/05/13 06:42:29;;;;;;;6.80;6.20;;;;;;;28.83;27.73;99563.56;5080821;28;20559;-69
2021/05/13 06:44:55;;;;;;;6.40;5.60;;;;;;;29.26;27.42;99555.78;5081219;28;20472;-69
2021/05/13 06:47:22;;;;;;;7.83;5.90;;;;;;;29.07;28.32;99551.97;5080889;28;21087;-69
2021/05/13 06:49:48;;;;;;;7.07;5.97;;;;;;;30.16;26.74;99553.06;5083802;28;20476;-70
2021/05/13 06:52:15;;;;;;;6.77;5.33;;;;;;;31.31;24.88;99555.25;5084382;28;20463;-69
2021/05/13 06:54:41;;;;;;;6.17;4.70;;;;;;;30.99;25.16;99554.00;5085187;28;20482;-69
2021/05/13 06:57:07;;;;;;;5.90;5.40;;;;;;;29.74;27.08;99540.66;5084290;28;20479;-71
2021/05/13 06:59:33;;;;;;;7.00;5.50;;;;;;;28.18;28.60;99536.69;5073482;28;20475;-68
2021/05/13 07:02:00;;;;;;;5.40;4.90;;;;;;;28.40;28.89;99543.84;5083847;28;20500;-67
2021/05/13 07:04:27;;;;;;;8.13;5.10;;;;;;;28.79;28.00;99542.44;5085106;28;20471;-68
2021/05/13 07:06:53;;;;;;;6.60;4.57;;;;;;;29.62;26.57;99533.56;5083920;28;20482;-69
2021/05/13 07:09:19;;;;;;;4.80;4.40;;;;;;;29.46;26.71;99545.75;5075597;28;20492;-69
2021/05/13 07:11:46;;;;;;;6.67;4.37;;;;;;;28.35;28.01;99546.59;5083501;28;20463;-67
2021/05/13 07:14:12;;;;;;;6.17;4.40;;;;;;;29.25;26.48;99548.63;5084839;28;20470;-68
2021/05/13 07:16:38;;;;;;;5.43;3.90;;;;;;;28.61;27.03;99547.41;5084445;28;20536;-69
2021/05/13 07:19:05;;;;;;;4.57;4.10;;;;;;;28.14;28.63;99543.84;5083043;28;20466;-68
2021/05/13 07:21:32;;;;;;;7.70;3.90;;;;;;;29.97;26.43;99548.25;5076310;28;20515;-69
2021/05/13 07:23:59;;;;;;;7.50;3.83;;;;;;;29.61;26.62;99540.16;5084774;28;20535;-69
2021/05/13 07:26:25;;;;;;;6.97;4.57;;;;;;;28.80;26.81;99542.16;5084025;28;20487;-68
2021/05/13 07:28:51;;;;;;;7.33;3.70;;;;;;;28.57;27.23;99537.25;5084788;28;20448;-68
2021/05/13 07:31:18;;;;;;;5.10;3.50;;;;;;;29.26;25.66;99542.00;5083844;28;20468;-65
2021/05/13 07:33:44;;;;;;;5.37;3.80;;;;;;;27.81;27.95;99547.88;5079390;28;20486;-64
2021/05/13 07:36:10;;;;;;;6.97;3.63;;;;;;;28.29;27.38;99543.00;5070482;28;20514;-64
2021/05/13 07:38:37;;;;;;;5.10;2.70;;;;;;;29.55;25.82;99543.28;5083212;28;20876;-66
2021/05/13 07:41:06;;;;;;;4.53;3.00;;;;;;;30.23;24.63;99540.59;5089828;28;20470;-68
2021/05/13 07:43:32;;;;;;;4.27;3.20;;;;;;;30.46;24.77;99549.25;5083676;28;20448;-64
2021/05/13 07:45:58;;;;;;;4.50;3.10;;;;;;;28.50;27.03;99546.56;5081974;28;20525;-67
2021/05/13 07:48:26;;;;;;;8.83;4.10;;;;;;;26.52;29.59;99535.47;5082701;28;20460;-65
2021/05/13 07:50:53;;;;;;;6.10;3.23;;;;;;;26.84;29.47;99540.09;5079593;28;20570;-66
2021/05/13 07:53:19;;;;;;;4.17;3.40;;;;;;;26.63;30.23;99550.09;5082165;28;20468;-68
2021/05/13 07:55:46;;;;;;;7.90;4.20;;;;;;;27.40;28.73;99532.13;5081190;28;20510;-66
2021/05/13 07:58:12;;;;;;;6.03;2.77;;;;;;;28.67;26.79;99534.47;5079301;28;20534;-65
2021/05/13 08:00:39;;;;;;;11.50;4.60;;;;;;;26.96;29.26;99537.97;5079389;28;20895;-64
2021/05/13 08:03:06;;;;;;;4.97;3.53;;;;;;;28.32;27.38;99541.63;5081375;28;20489;-68
2021/05/13 08:05:32;;;;;;;5.40;3.30;;;;;;;29.10;27.02;99545.91;5072039;28;20467;-72
2021/05/13 08:07:58;;;;;;;3.83;3.03;;;;;;;30.49;25.81;99542.34;5076688;28;20462;-68
2021/05/13 08:10:24;;;;;;;7.93;3.63;;;;;;;30.39;24.77;99538.56;5073672;28;20473;-65
2021/05/13 08:12:51;;;;;;;7.27;3.40;;;;;;;29.82;25.42;99543.66;5073630;28;20670;-68
2021/05/13 08:15:18;;;;;;;6.13;2.50;;;;;;;29.64;24.26;99534.09;5074737;28;20540;-65
2021/05/13 08:17:44;;;;;;;3.93;2.20;;;;;;;29.52;23.74;99541.06;5070341;28;20492;-64
2021/05/13 08:20:13;;;;;;;7.00;3.60;;;;;;;29.35;23.70;99533.16;5076675;28;20497;-64
2021/05/13 08:22:39;;;;;;;4.17;2.23;;;;;;;29.02;24.97;99538.22;5063662;28;20500;-67
2021/05/13 08:25:07;;;;;;;5.27;2.77;;;;;;;30.23;24.09;99539.78;5073511;28;20476;-66
2021/05/13 08:27:33;;;;;;;4.90;2.57;;;;;;;30.17;23.43;99525.22;5072563;28;20491;-66
2021/05/13 08:30:00;;;;;;;7.20;3.30;;;;;;;30.54;23.11;99532.06;5072479;28;20448;-67
2021/05/13 08:32:27;;;;;;;6.63;2.90;;;;;;;28.17;26.18;99528.72;5077166;28;21187;-66
2021/05/13 08:34:53;;;;;;;4.93;2.70;;;;;;;29.37;25.34;99518.00;5080402;28;20543;-66
2021/05/13 08:37:20;;;;;;;6.40;2.83;;;;;;;29.87;24.68;99525.47;5075326;28;20485;-66
2021/05/13 08:39:46;;;;;;;6.13;3.00;;;;;;;29.71;24.05;99519.19;5076228;28;20510;-66
2021/05/13 08:42:12;;;;;;;6.13;2.93;;;;;;;30.65;23.17;99530.03;5073047;28;20484;-65
2021/05/13 08:44:39;;;;;;;5.77;2.50;;;;;;;29.68;24.14;99529.66;5080205;28;20488;-65
2021/05/13 08:47:07;;;;;;;8.13;3.30;;;;;;;28.77;25.66;99520.69;5069116;28;20499;-66
2021/05/13 08:49:34;;;;;;;4.60;2.80;;;;;;;29.14;25.19;99529.66;5063972;28;20544;-66
2021/05/13 08:52:00;;;;;;;4.40;2.47;;;;;;;30.35;22.97;99520.13;5077192;28;20476;-66
2021/05/13 08:54:28;;;;;;;5.90;2.30;;;;;;;30.42;23.18;99521.44;5074399;28;20452;-66
2021/05/13 08:56:54;;;;;;;5.70;3.20;;;;;;;30.37;23.64;99521.47;5072422;28;20595;-66
2021/05/13 08:59:20;;;;;;;7.80;2.43;;;;;;;31.34;22.97;99524.28;5064358;28;21294;-65
2021/05/13 09:01:55;;;;;;;4.00;2.47;;;;;;;29.61;23.32;99520.88;5079197;28;20733;-65
2021/05/13 09:04:22;;;;;;;4.43;2.13;;;;;;;30.74;23.64;99521.94;5073182;28;20455;-66
2021/05/13 09:06:49;;;;;;;5.20;2.67;;;;;;;31.74;23.26;99505.50;5078366;28;20472;-66
2021/05/13 09:09:16;;;;;;;7.53;2.80;;;;;;;29.19;23.72;99511.22;5068942;28;20906;-65
2021/05/13 09:11:50;;;;;;;3.90;2.40;;;;;;;30.78;23.28;99511.97;5072850;28;20547;-67
2021/05/13 09:14:22;;;;;;;4.83;2.80;;;;;;;30.17;23.17;99513.34;5076719;28;20440;-66
2021/05/13 09:16:49;;;;;;;4.80;2.80;;;;;;;30.76;22.78;99522.47;5078811;28;20505;-66
2021/05/13 09:19:22;;;;;;;7.20;2.80;;;;;;;29.82;24.80;99521.59;5066996;28;20448;-68
2021/05/13 09:21:56;;;;;;;9.03;3.47;;;;;;;29.29;24.62;99513.09;5063855;28;20577;-66
2021/05/13 09:24:42;;;;;;;5.33;2.83;;;;;;;29.49;25.66;99509.41;5076528;28;20447;-66
2021/05/13 09:27:16;;;;;;;4.47;2.90;;;;;;;28.18;26.35;99509.19;5071817;28;20592;-66
2021/05/13 09:29:42;;;;;;;5.57;3.13;;;;;;;27.87;26.51;99497.34;5077121;28;20481;-66
2021/05/13 09:32:17;;;;;;;6.00;2.93;;;;;;;28.86;25.58;99502.50;5074477;28;20487;-66
2021/05/13 09:34:44;;;;;;;5.50;2.83;;;;;;;27.79;26.64;99506.97;5061175;28;20488;-67
2021/05/13 09:37:10;;;;;;;7.67;3.57;;;;;;;26.42;28.08;99507.97;5060912;28;20860;-65
2021/05/13 09:39:36;;;;;;;9.10;3.33;;;;;;;26.49;28.58;99505.81;5076529;28;20452;-65
2021/05/13 09:42:05;;;;;;;5.13;2.83;;;;;;;27.63;27.01;99507.22;5066442;28;20504;-66
2021/05/13 09:44:33;;;;;;;5.70;3.23;;;;;;;28.66;26.17;99502.56;5066669;28;20448;-66
2021/05/13 09:47:12;;;;;;;6.83;2.90;;;;;;;29.18;25.86;99497.72;5064296;28;20503;-65
2021/05/13 09:50:04;;;;;;;6.33;2.50;;;;;;;29.31;25.02;99501.81;5068526;28;20502;-65
2021/05/13 09:52:49;;;;;;;5.00;2.83;;;;;;;29.52;24.43;99502.50;5070039;28;20469;-65
2021/05/13 09:55:18;;;;;;;5.37;2.77;;;;;;;31.00;23.67;99502.34;5066611;28;20516;-66
2021/05/13 09:57:55;;;;;;;8.50;3.20;;;;;;;30.96;23.09;99502.13;5074882;28;20910;-66
2021/05/13 10:00:48;;;;;;;5.50;3.10;;;;;;;29.05;25.12;99499.13;5065251;28;20481;-66
2021/05/13 10:03:17;;;;;;;4.00;2.50;;;;;;;29.80;23.60;99495.47;5036607;28;20461;-66
2021/05/13 10:05:47;;;;;;;5.93;2.83;;;;;;;31.21;23.04;99498.22;5035538;28;20908;-66
2021/05/13 10:08:13;;;;;;;7.57;3.03;;;;;;;29.00;25.12;99496.41;5037316;28;20572;-65
2021/05/13 10:10:40;;;;;;;6.70;3.40;;;;;;;27.11;26.82;99487.81;5035733;28;20481;-66
2021/05/13 10:13:07;;;;;;;7.70;3.40;;;;;;;26.54;27.72;99486.66;5035262;28;20466;-65
2021/05/13 10:15:36;;;;;;;5.90;2.90;;;;;;;25.53;30.46;99489.09;5035452;28;20635;-65
2021/05/13 10:18:07;;;;;;;5.03;3.40;;;;;;;24.68;31.12;99482.31;5037749;28;20438;-65
2021/05/13 10:20:33;;;;;;;5.80;2.90;;;;;;;24.32;32.90;99485.34;5035462;28;20568;-65
2021/05/13 10:23:01;;;;;;;10.73;3.47;;;;;;;24.28;32.97;99483.34;5037446;28;20510;-65
2021/05/13 10:25:28;;;;;;;7.50;3.30;;;;;;;24.54;31.60;99479.13;5036429;28;20955;-65
2021/05/13 10:27:57;;;;;;;7.57;3.43;;;;;;;25.02;30.24;99482.22;5036629;28;20533;-66
2021/05/13 10:30:25;;;;;;;3.60;3.10;;;;;;;24.26;32.22;99475.41;5036343;28;20470;-65
2021/05/13 10:33:15;;;;;;;6.70;2.63;;;;;;;26.23;29.62;99474.69;5029570;28;20524;-66
2021/05/13 10:36:00;;;;;;;7.97;2.83;;;;;;;25.53;30.82;99475.44;5035338;28;20512;-65
2021/05/13 10:38:39;;;;;;;8.70;2.77;;;;;;;24.03;33.13;99474.50;5048529;28;20445;-65
2021/05/13 10:41:33;;;;;;;5.83;2.50;;;;;;;22.70;35.33;99472.75;5071444;28;20482;-65
2021/05/13 10:44:20;;;;;;;6.97;2.50;;;;;;;23.41;33.85;99475.31;5064866;28;20525;-66
2021/05/13 10:46:52;;;;;;;7.70;3.60;;;;;;;22.98;34.62;99471.16;5064123;28;20530;-65
2021/05/13 10:49:21;;;;;;;9.97;2.50;;;;;;;24.06;32.98;99463.09;5074776;28;20519;-65
2021/05/13 10:51:48;;;;;;;6.80;3.30;;;;;;;23.90;33.87;99460.34;5065313;28;20472;-65
2021/05/13 10:54:44;;;;;;;6.20;2.93;;;;;;;24.08;33.11;99459.28;5079003;28;20468;-65
2021/05/13 10:57:17;;;;;;;3.90;2.40;;;;;;;23.49;33.32;99460.47;5070192;28;20477;-65
2021/05/13 11:00:17;;;;;;;7.60;3.33;;;;;;;23.57;33.02;99454.59;5077993;28;20448;-67
2021/05/13 11:02:44;;;;;;;5.63;2.97;;;;;;;23.43;32.99;99459.50;5074992;28;20544;-65
2021/05/13 11:05:43;;;;;;;4.60;2.47;;;;;;;23.81;33.01;99458.03;5065047;28;20444;-65
2021/05/13 11:08:46;;;;;;;6.73;3.00;;;;;;;24.08;33.92;99460.13;5065970;28;20449;-65
2021/05/13 11:11:13;;;;;;;11.10;4.60;;;;;;;23.03;33.65;99451.34;5066580;28;21108;-65
2021/05/13 11:13:44;;;;;;;9.30;4.17;;;;;;;22.47;35.26;99454.56;5068902;28;20464;-66
2021/05/13 11:16:41;;;;;;;4.77;2.67;;;;;;;22.83;34.00;99449.88;5070921;28;20484;-65
2021/05/13 11:19:18;;;;;;;4.57;3.03;;;;;;;22.34;34.15;99450.19;5056190;28;20453;-65
2021/05/13 11:21:58;;;;;;;7.60;5.40;;;;;;;22.22;35.31;99453.94;5066383;28;21015;-65
2021/05/13 11:24:31;;;;;;;9.13;3.83;;;;;;;22.09;34.19;99458.53;5069083;28;21000;-66
2021/05/13 11:26:58;;;;;;;4.80;3.30;;;;;;;21.65;34.29;99447.13;5071873;28;20979;-70
2021/05/13 11:29:24;;;;;;;7.13;3.60;;;;;;;22.35;34.71;99446.38;5068459;28;20448;-65
2021/05/13 11:31:50;;;;;;;4.53;3.00;;;;;;;22.82;33.88;99447.38;5073675;28;21052;-65